Time;durP1;ratioP1;P1;durP2;ratioP2;P2;SDS_P1;SDS_P2;PMS_P1;PMS_P2;Temp;Humidity;BMP_temperature;BMP_pressure;BME280_temperature;BME280_humidity;BME280_pressure;Samples;Min_cycle;Max_cycle;Signal;HPM_P1;HPM_P2
2021/11/01 00:00:55;;;;;;;4.47;1.10;;;;;16.30;99587.00;;;;5069286;28;20227;-80
2021/11/01 00:03:22;;;;;;;4.63;1.33;;;;;16.30;99586.00;;;;5069706;28;20277;-80
2021/11/01 00:05:50;;;;;;;7.25;1.38;;;;;16.30;99570.00;;;;5075685;28;20672;-80
2021/11/01 00:08:17;;;;;;;4.50;0.98;;;;;16.30;99577.00;;;;5074209;28;20688;-80
2021/11/01 00:10:46;;;;;;;3.20;0.73;;;;;16.30;99583.00;;;;5069226;28;20223;-79
2021/11/01 00:13:13;;;;;;;3.63;0.77;;;;;16.30;99581.00;;;;5069863;28;20194;-80
2021/11/01 00:15:42;;;;;;;4.38;1.30;;;;;16.20;99578.00;;;;5069268;28;20187;-79
2021/11/01 00:18:10;;;;;;;5.75;1.45;;;;;16.20;99573.00;;;;5069165;28;20643;-79
2021/11/01 00:20:37;;;;;;;3.15;1.05;;;;;16.20;99568.00;;;;5068841;28;20611;-79
2021/11/01 00:23:04;;;;;;;3.45;1.10;;;;;16.20;99578.00;;;;5087621;28;20198;-80
2021/11/01 00:25:31;;;;;;;3.75;1.10;;;;;16.20;99571.00;;;;5086602;28;20190;-80
2021/11/01 00:28:00;;;;;;;5.93;0.52;;;;;16.20;99574.00;;;;5068578;28;20562;-79
2021/11/01 00:30:28;;;;;;;5.75;1.20;;;;;16.20;99574.00;;;;5069108;28;20226;-80
2021/11/01 00:32:55;;;;;;;3.40;0.93;;;;;16.20;99583.00;;;;5069091;28;20203;-79
2021/11/01 00:35:22;;;;;;;5.03;0.95;;;;;16.20;99577.00;;;;5087161;28;20202;-80
2021/11/01 00:37:50;;;;;;;6.57;1.05;;;;;16.10;99575.00;;;;5088540;28;20190;-80
2021/11/01 00:40:17;;;;;;;4.43;1.23;;;;;16.10;99577.00;;;;5088436;28;21211;-79
2021/11/01 00:42:44;;;;;;;5.22;1.27;;;;;16.10;99572.00;;;;5088561;28;20234;-80
2021/11/01 00:45:13;;;;;;;4.07;1.17;;;;;16.10;99567.00;;;;5070519;28;20207;-80
2021/11/01 00:47:40;;;;;;;3.20;1.00;;;;;16.10;99563.00;;;;5068952;28;20289;-80
2021/11/01 00:50:08;;;;;;;3.63;1.00;;;;;16.10;99567.00;;;;5068803;28;20217;-80
2021/11/01 00:52:35;;;;;;;2.78;1.02;;;;;16.10;99565.00;;;;5068752;28;20213;-79
2021/11/01 00:55:06;;;;;;;3.53;0.93;;;;;16.00;99560.00;;;;5068874;28;20206;-79
2021/11/01 00:57:34;;;;;;;3.75;0.98;;;;;16.00;99555.00;;;;5069434;28;20302;-79
2021/11/01 01:00:02;;;;;;;6.10;1.00;;;;;16.00;99551.00;;;;5068758;28;20589;-79
2021/11/01 01:02:33;;;;;;;3.10;1.58;;;;;16.00;99554.00;;;;5069295;28;20249;-79
2021/11/01 01:05:01;;;;;;;3.70;0.75;;;;;16.00;99553.00;;;;5068123;28;20195;-79
2021/11/01 01:07:29;;;;;;;5.75;1.42;;;;;16.00;99551.00;;;;5068178;28;20676;-79
2021/11/01 01:09:56;;;;;;;2.63;0.88;;;;;16.00;99544.00;;;;5070371;28;20810;-78
2021/11/01 01:12:24;;;;;;;4.10;1.25;;;;;16.00;99544.00;;;;5071941;28;20206;-79
2021/11/01 01:14:56;;;;;;;4.30;1.00;;;;;15.90;99541.00;;;;5072199;28;20203;-79
2021/11/01 01:17:25;;;;;;;1.98;0.70;;;;;15.90;99544.00;;;;5086989;28;20612;-79
2021/11/01 01:19:58;;;;;;;4.72;1.17;;;;;15.90;99532.00;;;;5092483;28;20218;-80
2021/11/01 01:22:29;;;;;;;3.83;0.77;;;;;15.90;99531.00;;;;5091788;28;20218;-79
2021/11/01 01:25:05;;;;;;;2.88;0.77;;;;;15.90;99533.00;;;;5077607;28;20256;-79
2021/11/01 01:27:33;;;;;;;2.28;0.80;;;;;15.90;99527.00;;;;5070676;28;20272;-80
2021/11/01 01:30:00;;;;;;;2.15;0.93;;;;;15.90;99524.00;;;;5071346;28;20220;-79
2021/11/01 01:32:27;;;;;;;1.63;0.90;;;;;15.90;99535.00;;;;5071362;28;20195;-80
2021/11/01 01:34:56;;;;;;;1.75;0.65;;;;;15.80;99530.00;;;;5071879;28;20672;-80
2021/11/01 01:37:23;;;;;;;7.47;1.02;;;;;15.80;99536.00;;;;5071662;28;20205;-80
2021/11/01 01:39:51;;;;;;;2.85;0.70;;;;;15.80;99525.00;;;;5071667;28;20214;-80
2021/11/01 01:42:18;;;;;;;3.90;0.93;;;;;15.80;99525.00;;;;5071626;28;20226;-80
2021/11/01 01:44:45;;;;;;;3.58;1.10;;;;;15.80;99525.00;;;;5071880;28;20859;-79
2021/11/01 01:47:12;;;;;;;3.92;1.00;;;;;15.80;99519.00;;;;5071206;28;20209;-80
2021/11/01 01:49:40;;;;;;;4.55;0.80;;;;;15.70;99523.00;;;;5071575;28;20195;-80
2021/11/01 01:52:09;;;;;;;3.50;0.68;;;;;15.70;99527.00;;;;5071442;28;20203;-79
2021/11/01 01:54:36;;;;;;;6.97;1.27;;;;;15.70;99522.00;;;;5085955;28;20198;-79
2021/11/01 01:57:04;;;;;;;3.10;0.68;;;;;15.70;99517.00;;;;5091164;28;20198;-79
2021/11/01 01:59:32;;;;;;;2.38;0.80;;;;;15.70;99524.00;;;;5091838;28;20215;-80
2021/11/01 02:01:59;;;;;;;3.45;1.00;;;;;15.70;99520.00;;;;5091021;28;20229;-79
2021/11/01 02:04:28;;;;;;;9.07;0.98;;;;;15.60;99514.00;;;;5091350;28;20289;-79
2021/11/01 02:07:12;;;;;;;3.22;0.95;;;;;15.60;99517.00;;;;5082226;28;20202;-79
2021/11/01 02:09:50;;;;;;;2.42;1.08;;;;;15.60;99506.00;;;;5085104;28;20218;-79
2021/11/01 02:12:21;;;;;;;1.40;0.50;;;;;15.60;99505.00;;;;5090800;28;20271;-79
2021/11/01 02:14:53;;;;;;;3.63;0.85;;;;;15.60;99502.00;;;;5091253;28;20209;-79
2021/11/01 02:17:23;;;;;;;3.55;1.00;;;;;15.60;99503.00;;;;5090880;28;20202;-79
2021/11/01 02:19:53;;;;;;;3.47;1.08;;;;;15.60;99492.00;;;;5089425;28;20438;-79
2021/11/01 02:22:31;;;;;;;3.10;0.70;;;;;15.50;99499.00;;;;5089060;28;20218;-79
2021/11/01 02:25:04;;;;;;;2.08;0.77;;;;;15.50;99486.00;;;;5080627;28;20199;-79
2021/11/01 02:27:36;;;;;;;3.50;1.10;;;;;15.50;99497.00;;;;5075134;28;20894;-80
2021/11/01 02:30:05;;;;;;;2.88;1.13;;;;;15.50;99489.00;;;;5077107;28;20199;-80
2021/11/01 02:32:35;;;;;;;2.47;1.08;;;;;15.50;99482.00;;;;5070783;28;20199;-80
2021/11/01 02:35:02;;;;;;;5.30;1.20;;;;;15.50;99484.00;;;;5082856;28;20202;-79
2021/11/01 02:37:30;;;;;;;2.38;0.63;;;;;15.50;99488.00;;;;5090171;28;20193;-80
2021/11/01 02:39:59;;;;;;;6.07;1.15;;;;;15.50;99486.00;;;;5076809;28;20195;-79
2021/11/01 02:42:28;;;;;;;1.90;0.52;;;;;15.50;99478.00;;;;5074854;28;20261;-80
2021/11/01 02:44:59;;;;;;;2.67;0.95;;;;;15.50;99489.00;;;;5090135;28;20289;-79
2021/11/01 02:47:28;;;;;;;2.70;0.85;;;;;15.50;99489.00;;;;5091033;28;20217;-79
2021/11/01 02:49:57;;;;;;;2.55;0.70;;;;;15.40;99493.00;;;;5090379;28;20199;-79
2021/11/01 02:52:25;;;;;;;2.55;1.13;;;;;15.40;99487.00;;;;5090874;28;20202;-79
2021/11/01 02:54:52;;;;;;;2.55;0.82;;;;;15.40;99499.00;;;;5078206;28;20206;-79
2021/11/01 02:57:20;;;;;;;5.60;0.85;;;;;15.40;99500.00;;;;5070208;28;20603;-79
2021/11/01 02:59:48;;;;;;;1.85;0.60;;;;;15.40;99495.00;;;;5077067;28;20210;-79
2021/11/01 03:02:18;;;;;;;3.95;1.05;;;;;15.40;99500.00;;;;5089803;28;20218;-80
2021/11/01 03:04:45;;;;;;;2.65;1.05;;;;;15.40;99505.00;;;;5084284;28;20203;-79
2021/11/01 03:07:14;;;;;;;2.53;0.60;;;;;15.40;99496.00;;;;5069882;28;20203;-80
2021/11/01 03:09:45;;;;;;;2.53;0.77;;;;;15.40;99504.00;;;;5070345;28;20211;-79
2021/11/01 03:12:16;;;;;;;4.57;0.65;;;;;15.40;99498.00;;;;5070297;28;20289;-79
2021/11/01 03:14:56;;;;;;;1.42;0.43;;;;;15.30;99495.00;;;;5069610;28;20206;-79
2021/11/01 03:17:26;;;;;;;4.30;0.75;;;;;15.30;99504.00;;;;5081076;28;20210;-79
2021/11/01 03:19:59;;;;;;;3.22;0.82;;;;;15.30;99499.00;;;;5079102;28;20309;-80
2021/11/01 03:22:31;;;;;;;3.03;0.90;;;;;15.30;99503.00;;;;5086023;28;20225;-79
2021/11/01 03:27:47;;;;;;;2.70;1.05;;;;;15.30;99502.00;;;;5072762;28;20287;-80
2021/11/01 03:30:16;;;;;;;1.73;0.60;;;;;15.30;99497.00;;;;5069621;28;20210;-79
2021/11/01 03:32:46;;;;;;;2.58;0.50;;;;;15.30;99493.00;;;;5068488;28;20202;-80
2021/11/01 03:35:14;;;;;;;3.15;0.80;;;;;15.30;99487.00;;;;5079876;28;20214;-79
2021/11/01 03:37:41;;;;;;;2.33;0.57;;;;;15.30;99493.00;;;;5071441;28;20202;-80
2021/11/01 03:40:12;;;;;;;2.00;0.80;;;;;15.30;99494.00;;;;5069071;28;20871;-80
2021/11/01 03:42:41;;;;;;;2.88;0.77;;;;;15.30;99492.00;;;;5069774;28;20231;-80
2021/11/01 03:45:10;;;;;;;4.68;0.98;;;;;15.30;99502.00;;;;5068778;28;20191;-79
2021/11/01 03:47:41;;;;;;;5.15;1.33;;;;;15.30;99497.00;;;;5069519;28;20225;-79
2021/11/01 03:50:19;;;;;;;2.72;0.57;;;;;15.30;99502.00;;;;5072254;28;20290;-81
2021/11/01 03:52:49;;;;;;;2.70;1.00;;;;;15.30;99494.00;;;;5089006;28;20577;-80
2021/11/01 03:55:16;;;;;;;3.17;0.95;;;;;15.30;99493.00;;;;5089325;28;20210;-80
2021/11/01 03:57:44;;;;;;;3.78;0.80;;;;;15.30;99494.00;;;;5089161;28;20201;-80
2021/11/01 04:00:13;;;;;;;3.83;1.17;;;;;15.30;99497.00;;;;5088845;28;20198;-80
2021/11/01 04:02:41;;;;;;;3.63;0.85;;;;;15.20;99489.00;;;;5088919;28;20613;-80
2021/11/01 04:05:10;;;;;;;5.13;1.00;;;;;15.20;99486.00;;;;5073035;28;20195;-80
2021/11/01 04:07:37;;;;;;;3.20;0.80;;;;;15.30;99470.00;;;;5074032;28;20675;-79
2021/11/01 04:10:07;;;;;;;2.28;0.82;;;;;15.20;99480.00;;;;5072157;28;20215;-79
2021/11/01 04:12:35;;;;;;;3.00;0.80;;;;;15.20;99484.00;;;;5068715;28;20603;-79
2021/11/01 04:15:05;;;;;;;3.97;0.77;;;;;15.20;99487.00;;;;5068336;28;20586;-79
2021/11/01 04:17:44;;;;;;;7.38;1.65;;;;;15.20;99494.00;;;;5069585;28;20210;-79
2021/11/01 04:20:28;;;;;;;2.55;0.95;;;;;15.20;99489.00;;;;5069134;28;20212;-79
2021/11/01 04:23:00;;;;;;;5.07;1.13;;;;;15.20;99491.00;;;;5068217;28;20268;-79
2021/11/01 04:25:29;;;;;;;2.17;0.70;;;;;15.20;99489.00;;;;5069236;28;20240;-79
2021/11/01 04:27:58;;;;;;;2.05;1.10;;;;;15.20;99484.00;;;;5068548;28;20719;-79
2021/11/01 04:30:27;;;;;;;1.80;0.80;;;;;15.20;99482.00;;;;5069127;28;20202;-80
2021/11/01 04:32:57;;;;;;;2.25;0.70;;;;;15.20;99478.00;;;;5084562;28;20205;-80
2021/11/01 04:35:27;;;;;;;2.22;0.95;;;;;15.20;99483.00;;;;5087638;28;20616;-80
2021/11/01 04:38:01;;;;;;;1.55;0.77;;;;;15.20;99486.00;;;;5088895;28;20579;-80
2021/11/01 04:40:36;;;;;;;3.15;0.82;;;;;15.20;99481.00;;;;5088415;28;20618;-80
2021/11/01 04:43:38;;;;;;;3.15;0.90;;;;;15.20;99476.00;;;;5080912;28;20231;-80
2021/11/01 04:54:21;;;;;;;5.45;0.77;;;;;15.10;99471.00;;;;5068151;28;20583;-79
2021/11/01 04:56:48;;;;;;;5.07;0.70;;;;;15.10;99482.00;;;;5086478;28;20198;-79
2021/11/01 04:59:16;;;;;;;1.15;0.65;;;;;15.10;99469.00;;;;5077556;28;20206;-80
2021/11/01 05:01:48;;;;;;;2.45;0.65;;;;;15.10;99480.00;;;;5067555;28;20202;-79
2021/11/01 05:04:17;;;;;;;2.40;0.68;;;;;15.10;99474.00;;;;5068255;28;20211;-79
2021/11/01 05:06:50;;;;;;;4.93;1.10;;;;;15.10;99483.00;;;;5070211;28;20203;-79
2021/11/01 05:09:21;;;;;;;4.30;0.75;;;;;15.10;99483.00;;;;5067445;28;20707;-79
2021/11/01 05:11:58;;;;;;;3.85;1.00;;;;;15.10;99490.00;;;;5068314;28;20365;-80
2021/11/01 05:14:32;;;;;;;1.35;0.47;;;;;15.10;99499.00;;;;5067910;28;20198;-80
2021/11/01 05:17:12;;;;;;;1.30;0.50;;;;;15.10;99499.00;;;;5086060;28;20205;-79
2021/11/01 05:19:45;;;;;;;1.92;0.60;;;;;15.10;99504.00;;;;5087881;28;20194;-79
2021/11/01 05:22:20;;;;;;;3.58;0.70;;;;;15.10;99492.00;;;;5088005;28;20303;-79
2021/11/01 05:24:51;;;;;;;6.40;1.35;;;;;15.10;99500.00;;;;5087969;28;20205;-79
2021/11/01 05:27:40;;;;;;;1.75;0.52;;;;;15.10;99495.00;;;;5087978;28;20602;-80
2021/11/01 05:30:12;;;;;;;1.98;0.80;;;;;15.10;99503.00;;;;5086401;28;20572;-79
2021/11/01 05:32:41;;;;;;;2.83;0.80;;;;;15.10;99503.00;;;;5082575;28;20203;-79
2021/11/01 05:35:09;;;;;;;2.40;0.80;;;;;15.10;99505.00;;;;5079687;28;20203;-79
2021/11/01 05:37:38;;;;;;;5.00;0.80;;;;;15.10;99502.00;;;;5088029;28;20691;-80
2021/11/01 05:40:06;;;;;;;2.13;0.80;;;;;15.10;99511.00;;;;5087410;28;20205;-79
2021/11/01 05:42:33;;;;;;;1.92;0.50;;;;;15.10;99504.00;;;;5087825;28;20241;-80
2021/11/01 05:45:00;;;;;;;4.15;1.25;;;;;15.10;99508.00;;;;5079561;28;20222;-81
2021/11/01 05:47:28;;;;;;;4.32;1.17;;;;;15.10;99510.00;;;;5067438;28;20660;-80
2021/11/01 05:49:56;;;;;;;3.22;1.00;;;;;15.10;99515.00;;;;5075632;28;20198;-80
2021/11/01 05:52:27;;;;;;;3.03;1.00;;;;;15.20;99512.00;;;;5087615;28;20229;-79
2021/11/01 05:55:01;;;;;;;2.83;0.52;;;;;15.20;99514.00;;;;5080541;28;20199;-79
2021/11/01 05:57:41;;;;;;;3.28;1.00;;;;;15.20;99520.00;;;;5083651;28;20194;-79
2021/11/01 06:00:19;;;;;;;4.80;0.93;;;;;15.20;99525.00;;;;5075836;28;20198;-79
2021/11/01 06:02:55;;;;;;;2.78;0.98;;;;;15.20;99527.00;;;;5070118;28;20314;-79
2021/11/01 06:05:38;;;;;;;1.65;0.70;;;;;15.20;99518.00;;;;5071182;28;20198;-78
2021/11/01 06:13:35;;;;;;;3.65;1.08;;;;;15.30;99525.00;;;;5071106;28;20199;-79
2021/11/01 06:16:03;;;;;;;3.83;0.70;;;;;15.30;99523.00;;;;5070555;28;20206;-80
2021/11/01 06:18:35;;;;;;;3.83;0.57;;;;;15.40;99521.00;;;;5075687;28;20657;-80
2021/11/01 06:21:03;;;;;;;1.52;0.57;;;;;15.40;99522.00;;;;5081173;28;20677;-80
2021/11/01 06:23:31;;;;;;;1.95;0.52;;;;;15.40;99529.00;;;;5075587;28;20229;-80
2021/11/01 06:26:00;;;;;;;2.13;0.75;;;;;15.40;99537.00;;;;5083468;28;20194;-80
2021/11/01 06:28:28;;;;;;;3.90;0.75;;;;;15.40;99542.00;;;;5082480;28;20222;-81
2021/11/01 06:30:58;;;;;;;3.80;1.08;;;;;15.50;99529.00;;;;5073841;28;20203;-80
2021/11/01 06:33:45;;;;;;;2.90;1.00;;;;;15.50;99542.00;;;;5074607;28;20664;-81
2021/11/01 06:41:49;;;;;;;4.63;1.00;;;;;15.40;99534.00;;;;5078545;28;20722;-81
2021/11/01 06:44:30;;;;;;;2.88;1.25;;;;;15.40;99544.00;;;;5072719;28;20333;-81
2021/11/01 06:49:48;;;;;;;3.42;1.08;;;;;15.40;99557.00;;;;5071606;28;20202;-79
2021/11/01 06:55:11;;;;;;;2.50;0.80;;;;;15.40;99565.00;;;;5064503;28;20203;-80
2021/11/01 06:57:47;;;;;;;3.83;1.10;;;;;15.40;99568.00;;;;5068853;28;20202;-80
2021/11/01 07:14:14;;;;;;;2.25;0.63;;;;;15.40;99580.00;;;;5072618;28;20971;-79
2021/11/01 07:16:45;;;;;;;3.72;1.25;;;;;15.40;99578.00;;;;5069867;28;20206;-79
2021/11/01 07:19:21;;;;;;;1.90;0.90;;;;;15.40;99578.00;;;;5087261;28;20191;-79
2021/11/01 07:22:20;;;;;;;4.05;1.30;;;;;15.40;99586.00;;;;5077645;28;20216;-79
2021/11/01 07:25:08;;;;;;;3.70;1.40;;;;;15.40;99589.00;;;;5070016;28;20198;-80
2021/11/01 07:30:35;;;;;;;4.40;1.23;;;;;15.50;99592.00;;;;5072356;28;20205;-80
2021/11/01 08:23:05;;;;;;;6.90;0.98;;;;;15.90;99644.00;;;;5048341;28;20697;-81
2021/11/01 08:25:53;;;;;;;1.45;0.73;;;;;16.00;99628.00;;;;5062203;28;20669;-80
2021/11/01 08:37:08;;;;;;;3.42;1.02;;;;;16.10;99619.00;;;;5022201;28;20675;-82
2021/11/01 08:39:46;;;;;;;2.80;1.08;;;;;16.10;99616.00;;;;5076508;28;20195;-80
2021/11/01 08:45:23;;;;;;;3.30;0.95;;;;;16.20;99627.00;;;;5067194;28;20213;-79
2021/11/01 08:48:08;;;;;;;5.00;0.90;;;;;16.20;99632.00;;;;5076490;28;20230;-80
2021/11/01 08:50:57;;;;;;;4.65;1.60;;;;;16.30;99626.00;;;;5070208;28;20650;-80
2021/11/01 09:02:01;;;;;;;2.90;0.60;;;;;16.40;99616.00;;;;5073494;28;20256;-80
2021/11/01 09:04:44;;;;;;;2.05;1.00;;;;;16.50;99611.00;;;;5070297;28;20215;-81
2021/11/01 09:07:40;;;;;;;3.65;1.08;;;;;16.50;99618.00;;;;5079260;28;20198;-80
2021/11/01 09:10:44;;;;;;;3.80;1.17;;;;;16.50;99613.00;;;;5069936;28;20331;-81
2021/11/01 09:19:12;;;;;;;3.78;1.00;;;;;16.60;99610.00;;;;5044298;28;20218;-81
2021/11/01 09:21:52;;;;;;;2.90;0.98;;;;;16.60;99612.00;;;;5039584;28;20200;-80
2021/11/01 09:24:42;;;;;;;1.40;0.60;;;;;16.70;99616.00;;;;5054236;28;20215;-81
2021/11/01 09:27:13;;;;;;;3.85;0.93;;;;;16.70;99611.00;;;;5079821;28;20304;-80
2021/11/01 09:29:57;;;;;;;3.30;1.42;;;;;16.70;99612.00;;;;5072886;28;20198;-79
2021/11/01 09:40:58;;;;;;;1.20;0.45;;;;;16.90;99615.00;;;;5060541;28;20230;-81
2021/11/01 09:43:27;;;;;;;2.70;0.82;;;;;17.00;99613.00;;;;5071502;28;20704;-81
2021/11/01 09:45:56;;;;;;;1.65;0.70;;;;;17.00;99618.00;;;;5082322;28;20206;-80
2021/11/01 09:48:24;;;;;;;2.92;0.73;;;;;17.10;99614.00;;;;5075524;28;20202;-79
2021/11/01 09:50:52;;;;;;;2.00;0.65;;;;;17.10;99613.00;;;;5070821;28;20195;-80
2021/11/01 09:53:22;;;;;;;0.98;0.52;;;;;17.20;99632.00;;;;5074076;28;20213;-81
2021/11/01 09:55:56;;;;;;;1.27;0.85;;;;;17.20;99641.00;;;;5077445;28;20209;-80
2021/11/01 10:01:11;;;;;;;1.52;0.55;;;;;17.30;99631.00;;;;5070806;28;20268;-81
2021/11/01 10:03:41;;;;;;;2.95;0.75;;;;;17.40;99636.00;;;;5081100;28;20226;-80
2021/11/01 10:06:12;;;;;;;2.08;0.70;;;;;17.40;99639.00;;;;5072303;28;20187;-81
2021/11/01 10:08:40;;;;;;;4.97;0.90;;;;;17.50;99629.00;;;;5071473;28;20301;-81
2021/11/01 10:11:16;;;;;;;4.82;0.80;;;;;17.40;99634.00;;;;5074190;28;20306;-81
2021/11/01 10:13:46;;;;;;;2.05;0.95;;;;;17.50;99631.00;;;;5073726;28;20194;-81
2021/11/01 10:19:14;;;;;;;2.35;0.98;;;;;17.70;99633.00;;;;5075165;28;20264;-81
2021/11/01 10:21:52;;;;;;;0.50;0.50;;;;;17.60;99641.00;;;;5074708;28;20298;-81
2021/11/01 10:24:25;;;;;;;1.98;0.65;;;;;17.70;99630.00;;;;5068305;28;20222;-81
2021/11/01 10:26:54;;;;;;;5.70;0.80;;;;;17.80;99622.00;;;;5068007;28;20953;-81
2021/11/01 10:29:23;;;;;;;2.65;0.73;;;;;17.80;99629.00;;;;5079740;28;20197;-82
2021/11/01 10:31:51;;;;;;;1.60;0.50;;;;;17.90;99633.00;;;;5078388;28;20209;-81
2021/11/01 10:34:26;;;;;;;3.75;1.00;;;;;18.00;99631.00;;;;5071725;28;20195;-80
2021/11/01 10:36:56;;;;;;;1.33;0.70;;;;;18.00;99630.00;;;;5078650;28;20202;-81
2021/11/01 10:39:25;;;;;;;3.53;0.90;;;;;18.10;99638.00;;;;5072045;28;20268;-80
2021/11/01 10:41:57;;;;;;;2.67;0.70;;;;;18.10;99633.00;;;;5068253;28;20205;-80
2021/11/01 11:12:42;;;;;;;2.55;0.70;;;;;18.60;99645.00;;;;5071094;28;20260;-79
2021/11/01 11:15:14;;;;;;;1.33;0.30;;;;;18.60;99653.00;;;;5069539;28;20202;-80
2021/11/01 11:17:50;;;;;;;3.40;0.50;;;;;18.70;99650.00;;;;5074640;28;20276;-81
2021/11/01 11:20:41;;;;;;;2.72;0.80;;;;;18.80;99642.00;;;;5074018;28;20204;-81
2021/11/01 11:48:46;;;;;;;2.03;0.68;;;;;19.20;99642.00;;;;5077667;28;20264;-80
2021/11/01 11:51:14;;;;;;;2.88;1.08;;;;;19.20;99641.00;;;;5080095;28;20194;-80
2021/11/01 11:53:57;;;;;;;5.82;2.33;;;;;19.20;99639.00;;;;5079665;28;20238;-80
2021/11/01 11:56:29;;;;;;;3.05;1.45;;;;;19.30;99631.00;;;;5071581;28;20203;-80
2021/11/01 11:59:01;;;;;;;1.42;0.90;;;;;19.30;99639.00;;;;5081132;28;20277;-81
2021/11/01 12:01:29;;;;;;;1.20;0.80;;;;;19.30;99636.00;;;;5080959;28;20221;-82
2021/11/01 12:03:59;;;;;;;1.83;1.17;;;;;19.30;99631.00;;;;5075681;28;20245;-84
2021/11/01 12:06:47;;;;;;;3.08;0.82;;;;;19.20;99644.00;;;;5074437;28;20664;-82
2021/11/01 12:09:21;;;;;;;2.35;1.25;;;;;19.20;99630.00;;;;5071566;28;20314;-84
2021/11/01 12:17:25;;;;;;;2.15;0.85;;;;;19.20;99637.00;;;;5076037;28;20616;-82
2021/11/01 12:19:52;;;;;;;5.25;1.33;;;;;19.30;99631.00;;;;5077782;28;20296;-81
2021/11/01 12:22:29;;;;;;;3.33;0.90;;;;;19.20;99640.00;;;;5076319;28;20198;-82
2021/11/01 12:24:59;;;;;;;2.83;1.10;;;;;19.30;99624.00;;;;5076753;28;20232;-82
2021/11/01 12:27:31;;;;;;;2.25;1.02;;;;;19.30;99643.00;;;;5079158;28;20773;-83
2021/11/01 12:30:00;;;;;;;2.40;0.90;;;;;19.30;99636.00;;;;5084246;28;20209;-82
2021/11/01 12:32:30;;;;;;;1.92;0.90;;;;;19.30;99639.00;;;;5079543;28;20438;-83
2021/11/01 12:35:03;;;;;;;2.50;1.25;;;;;19.30;99632.00;;;;5077206;28;20190;-82
2021/11/01 12:37:34;;;;;;;3.95;1.50;;;;;19.40;99634.00;;;;5075330;28;20227;-83
2021/11/01 12:40:07;;;;;;;2.50;0.88;;;;;19.40;99633.00;;;;5083988;28;20719;-83
2021/11/01 12:42:43;;;;;;;3.63;1.23;;;;;19.40;99644.00;;;;5072220;28;20258;-82
2021/11/01 12:59:12;;;;;;;1.33;0.70;;;;;20.70;99637.00;;;;5073514;28;20205;-82
2021/11/01 13:01:49;;;;;;;3.47;0.90;;;;;21.10;99641.00;;;;5075870;28;20213;-82
2021/11/01 13:04:35;;;;;;;2.55;1.05;;;;;21.60;99644.00;;;;5069755;28;20308;-80
2021/11/01 13:07:11;;;;;;;3.58;0.82;;;;;22.10;99638.00;;;;5073761;28;20252;-83
2021/11/01 13:09:45;;;;;;;2.53;0.50;;;;;22.40;99643.00;;;;5071746;28;20210;-83
2021/11/01 13:12:31;;;;;;;3.72;0.65;;;;;22.90;99639.00;;;;5073154;28;20198;-82
2021/11/01 13:15:07;;;;;;;3.28;1.08;;;;;23.50;99626.00;;;;5086470;28;20194;-82
2021/11/01 13:17:54;;;;;;;8.63;1.95;;;;;24.00;99632.00;;;;5078953;28;20202;-82
2021/11/01 13:20:23;;;;;;;3.10;0.82;;;;;24.50;99621.00;;;;5083827;28;20189;-82
2021/11/01 13:22:55;;;;;;;6.25;0.85;;;;;25.00;99626.00;;;;5082292;28;20297;-81
2021/11/01 13:25:28;;;;;;;2.97;1.30;;;;;25.40;99627.00;;;;5072913;28;20219;-80
2021/11/01 13:28:23;;;;;;;3.33;0.70;;;;;25.80;99637.00;;;;5073679;28;20752;-81
2021/11/01 13:36:28;;;;;;;2.20;0.60;;;;;26.60;99634.00;;;;5074501;28;20556;-81
2021/11/01 13:38:59;;;;;;;3.35;0.80;;;;;26.70;99647.00;;;;5067773;28;20210;-81
2021/11/01 13:41:29;;;;;;;2.50;0.65;;;;;26.90;99641.00;;;;5077432;28;20205;-82
2021/11/01 13:44:08;;;;;;;1.40;0.63;;;;;27.00;99636.00;;;;5085470;28;20293;-82
2021/11/01 13:46:42;;;;;;;1.83;0.80;;;;;27.20;99645.00;;;;5068959;28;20202;-83
2021/11/01 13:49:10;;;;;;;1.83;0.60;;;;;27.30;99650.00;;;;5071982;28;20713;-83
2021/11/01 13:51:38;;;;;;;2.72;1.02;;;;;27.30;99651.00;;;;5067636;28;20203;-83
2021/11/01 13:54:09;;;;;;;1.45;0.52;;;;;27.10;99656.00;;;;5066858;28;20533;-82
2021/11/01 13:56:41;;;;;;;3.80;0.85;;;;;26.70;99652.00;;;;5072691;28;20298;-83
2021/11/01 13:59:24;;;;;;;0.73;0.40;;;;;26.30;99653.00;;;;5078428;28;20205;-82
2021/11/01 14:02:11;;;;;;;2.90;0.68;;;;;25.80;99664.00;;;;5081809;28;20263;-81
2021/11/01 14:13:04;;;;;;;2.85;0.52;;;;;23.90;99659.00;;;;5081571;28;20619;-80
2021/11/01 14:15:58;;;;;;;2.08;0.50;;;;;23.60;99656.00;;;;5069675;28;20268;-80
2021/11/01 14:18:51;;;;;;;3.50;0.85;;;;;23.20;99661.00;;;;5070993;28;20293;-80
2021/11/01 14:27:19;;;;;;;2.47;0.50;;;;;22.10;99650.00;;;;5031528;28;20824;-81
2021/11/01 14:35:48;;;;;;;1.55;0.35;;;;;21.50;99645.00;;;;5070317;28;20244;-81
2021/11/01 15:01:20;;;;;;;1.80;0.68;;;;;20.00;99650.00;;;;5080030;28;20211;-81
2021/11/01 15:18:08;;;;;;;1.80;0.52;;;;;19.50;99633.00;;;;5069137;28;20240;-81
2021/11/01 15:20:44;;;;;;;1.70;0.50;;;;;19.40;99633.00;;;;5070081;28;20685;-80
2021/11/01 15:23:20;;;;;;;0.60;0.40;;;;;19.30;99633.00;;;;5068899;28;20202;-80
2021/11/01 15:26:05;;;;;;;2.20;0.60;;;;;19.30;99628.00;;;;5074029;28;20218;-80
2021/11/01 15:28:56;;;;;;;1.60;0.60;;;;;19.20;99635.00;;;;5074494;28;20226;-81
2021/11/01 15:40:13;;;;;;;0.93;0.45;;;;;18.90;99671.00;;;;5034977;28;20219;-81
2021/11/01 16:18:42;;;;;;;1.95;0.20;;;;;17.50;99683.00;;;;5072332;28;20293;-81
2021/11/01 16:21:10;;;;;;;0.20;0.08;;;;;17.50;99679.00;;;;5071910;28;20220;-82
2021/11/01 16:23:37;;;;;;;0.22;0.10;;;;;17.40;99685.00;;;;5074006;28;20665;-81
2021/11/01 16:26:20;;;;;;;0.15;0.10;;;;;17.40;99681.00;;;;5072784;28;20815;-82
2021/11/01 16:28:52;;;;;;;0.28;0.20;;;;;17.30;99684.00;;;;5073861;28;20241;-82
2021/11/01 16:31:31;;;;;;;0.47;0.20;;;;;17.30;99680.00;;;;5073629;28;20199;-81
2021/11/01 16:34:05;;;;;;;0.95;0.73;;;;;17.20;99679.00;;;;5076208;28;20220;-82
2021/11/01 16:36:48;;;;;;;1.75;0.15;;;;;17.10;99680.00;;;;5073707;28;20206;-81
2021/11/01 16:39:17;;;;;;;1.95;0.55;;;;;17.10;99681.00;;;;5073832;28;20318;-81
2021/11/01 16:41:48;;;;;;;0.40;0.20;;;;;17.00;99688.00;;;;5074165;28;20198;-81
2021/11/01 16:44:18;;;;;;;0.30;0.20;;;;;17.00;99680.00;;;;5070881;28;20750;-80
2021/11/01 16:46:47;;;;;;;0.10;0.10;;;;;17.00;99692.00;;;;5072410;28;20227;-82
2021/11/01 16:49:16;;;;;;;1.02;0.30;;;;;16.90;99687.00;;;;5067842;28;20198;-82
2021/11/01 16:51:44;;;;;;;0.50;0.28;;;;;16.90;99689.00;;;;5069785;28;20191;-81
2021/11/01 16:54:14;;;;;;;0.10;0.10;;;;;16.90;99692.00;;;;5071884;28;20672;-82
2021/11/01 16:56:56;;;;;;;0.30;0.20;;;;;16.90;99688.00;;;;5070608;28;20205;-82
2021/11/01 16:59:38;;;;;;;1.20;0.20;;;;;16.80;99686.00;;;;5083649;28;20604;-82
2021/11/01 17:02:27;;;;;;;2.60;0.30;;;;;16.80;99687.00;;;;5072498;28;20200;-81
2021/11/01 17:05:00;;;;;;;0.40;0.15;;;;;16.80;99686.00;;;;5068600;28;20300;-81
2021/11/01 17:07:35;;;;;;;0.57;0.30;;;;;16.70;99674.00;;;;5068126;28;20194;-82
2021/11/01 17:10:24;;;;;;;0.57;0.20;;;;;16.70;99683.00;;;;5068999;28;20209;-81
2021/11/01 17:21:22;;;;;;;0.60;0.20;;;;;16.40;99682.00;;;;5070096;28;20202;-83
2021/11/01 17:24:05;;;;;;;1.48;0.20;;;;;16.40;99691.00;;;;5075356;28;20193;-83
2021/11/01 17:26:45;;;;;;;0.88;0.40;;;;;16.40;99702.00;;;;5073746;28;20257;-84
2021/11/01 17:35:05;;;;;;;0.73;0.40;;;;;16.30;99695.00;;;;5070148;28;20248;-82
2021/11/01 17:37:41;;;;;;;0.50;0.30;;;;;16.30;99693.00;;;;5076637;28;20187;-83
2021/11/01 18:38:47;;;;;;;2.33;1.55;;;;;15.50;99746.00;;;;5091073;28;20683;-82
2021/11/01 18:41:17;;;;;;;1.95;1.73;;;;;15.50;99753.00;;;;5077796;28;20207;-82
2021/11/01 18:44:26;;;;;;;1.83;1.42;;;;;15.50;99753.00;;;;5071688;28;20202;-82
2021/11/01 18:52:33;;;;;;;1.30;1.10;;;;;15.30;99735.00;;;;5081231;28;20252;-82
2021/11/01 18:55:05;;;;;;;1.80;1.27;;;;;15.30;99736.00;;;;5089781;28;20182;-81
2021/11/01 18:57:35;;;;;;;2.00;1.38;;;;;15.30;99738.00;;;;5089880;28;20206;-83
2021/11/01 19:00:05;;;;;;;2.03;1.13;;;;;15.30;99738.00;;;;5088054;28;20194;-83
2021/11/01 19:02:40;;;;;;;3.17;1.48;;;;;15.20;99738.00;;;;5087732;28;20578;-83
2021/11/01 19:05:14;;;;;;;1.60;1.30;;;;;15.20;99742.00;;;;5090371;28;20812;-84
2021/11/01 19:07:48;;;;;;;0.90;0.70;;;;;15.20;99744.00;;;;5091352;28;20202;-81
2021/11/01 20:04:03;;;;;;;2.83;1.98;;;;;14.70;99747.00;;;;5085509;28;20213;-81
2021/11/01 20:12:28;;;;;;;3.28;2.20;;;;;14.70;99757.00;;;;5063659;28;20415;-81
2021/11/01 20:15:12;;;;;;;3.40;2.28;;;;;14.70;99754.00;;;;5072877;28;20305;-81
2021/11/01 21:25:03;;;;;;;3.50;1.42;;;;;14.20;99764.00;;;;5049694;28;20198;-80
2021/11/01 21:27:31;;;;;;;2.03;1.48;;;;;14.20;99761.00;;;;5056056;28;20199;-82